Time;durP1;ratioP1;P1;durP2;ratioP2;P2;SDS_P1;SDS_P2;PMS_P1;PMS_P2;Temp;Humidity;BMP_temperature;BMP_pressure;BME280_temperature;BME280_humidity;BME280_pressure;Samples;Min_cycle;Max_cycle;Signal;HPM_P1;HPM_P2
2021/01/30 00:00:15;;;;;;;;;;;4.30;99.90;;;;;;5124526;27;19992;-79
2021/01/30 00:02:40;;;;;;;;;;;4.20;99.90;;;;;;5123483;27;19907;-79
2021/01/30 00:05:07;;;;;;;;;;;4.20;99.90;;;;;;5125361;27;20056;-79
2021/01/30 00:07:32;;;;;;;;;;;4.10;99.90;;;;;;5105571;27;19907;-79
2021/01/30 00:09:58;;;;;;;;;;;4.10;99.90;;;;;;5105327;27;19917;-79
2021/01/30 00:12:23;;;;;;;;;;;4.00;99.90;;;;;;5124621;27;19914;-79
2021/01/30 00:14:49;;;;;;;;;;;4.00;99.90;;;;;;5123662;27;20006;-79
2021/01/30 00:17:15;;;;;;;;;;;4.00;99.90;;;;;;5124028;27;19907;-79
2021/01/30 00:19:43;;;;;;;;;;;4.00;99.90;;;;;;5122420;27;19953;-79
2021/01/30 00:22:10;;;;;;;;;;;3.90;99.90;;;;;;5107482;27;19915;-79
2021/01/30 00:24:42;;;;;;;;;;;3.80;99.90;;;;;;5123760;27;19968;-79
2021/01/30 00:27:09;;;;;;;;;;;3.70;99.90;;;;;;5123168;27;20426;-79
2021/01/30 00:29:34;;;;;;;;;;;3.80;99.90;;;;;;5123897;27;20010;-79
2021/01/30 00:32:00;;;;;;;;;;;3.80;99.90;;;;;;5124632;27;19939;-79
2021/01/30 00:34:27;;;;;;;;;;;3.80;99.90;;;;;;5122908;27;20296;-79
2021/01/30 00:36:53;;;;;;;;;;;3.80;99.90;;;;;;5124064;27;19915;-79
2021/01/30 00:39:19;;;;;;;;;;;3.70;99.90;;;;;;5124370;27;19994;-79
2021/01/30 00:41:44;;;;;;;;;;;3.70;99.90;;;;;;5122584;27;19908;-79
2021/01/30 00:44:10;;;;;;;;;;;3.70;99.90;;;;;;5124392;27;19908;-79
2021/01/30 00:46:36;;;;;;;;;;;3.60;99.90;;;;;;5123916;27;20371;-79
2021/01/30 00:49:01;;;;;;;;;;;3.60;99.90;;;;;;5122659;27;19907;-79
2021/01/30 00:51:27;;;;;;;;;;;3.50;99.90;;;;;;5122644;27;20387;-79
2021/01/30 00:53:52;;;;;;;;;;;3.50;99.90;;;;;;5105369;28;19914;-79
2021/01/30 00:56:18;;;;;;;;;;;3.50;99.90;;;;;;5124253;27;19961;-79
2021/01/30 00:58:44;;;;;;;;;;;3.50;99.90;;;;;;5122384;27;19908;-79
2021/01/30 01:01:09;;;;;;;;;;;3.40;99.90;;;;;;5124356;27;19924;-79
2021/01/30 01:03:35;;;;;;;;;;;3.50;99.90;;;;;;5123468;28;19912;-79
2021/01/30 01:06:01;;;;;;;;;;;3.40;99.90;;;;;;5122770;28;20006;-79
2021/01/30 01:08:27;;;;;;;;;;;3.40;99.90;;;;;;5124226;28;20003;-79
2021/01/30 01:10:52;;;;;;;;;;;3.40;99.90;;;;;;5121935;28;19912;-79
2021/01/30 01:13:18;;;;;;;;;;;3.40;99.90;;;;;;5105139;28;19914;-79
2021/01/30 01:15:44;;;;;;;;;;;3.40;99.90;;;;;;5124540;28;19914;-79
2021/01/30 01:18:10;;;;;;;;;;;3.40;99.90;;;;;;5120263;28;19999;-79
2021/01/30 01:20:35;;;;;;;;;;;3.40;99.90;;;;;;5123630;28;19908;-79
2021/01/30 01:23:00;;;;;;;;;;;3.30;99.90;;;;;;5105822;28;19977;-79
2021/01/30 01:25:26;;;;;;;;;;;3.30;99.90;;;;;;5125485;27;19908;-79
2021/01/30 01:27:51;;;;;;;;;;;3.30;99.90;;;;;;5127926;27;20361;-79
2021/01/30 01:30:18;;;;;;;;;;;3.20;99.90;;;;;;5109398;27;20397;-79
2021/01/30 01:32:43;;;;;;;;;;;3.20;99.90;;;;;;5126129;27;19943;-79
2021/01/30 01:35:12;;;;;;;;;;;3.20;99.90;;;;;;5128295;27;20015;-79
2021/01/30 01:37:37;;;;;;;;;;;3.20;99.90;;;;;;5127912;27;19907;-79
2021/01/30 01:40:03;;;;;;;;;;;3.20;99.90;;;;;;5107637;27;19915;-79
2021/01/30 01:42:29;;;;;;;;;;;3.10;99.90;;;;;;5127986;27;19915;-79
2021/01/30 01:44:54;;;;;;;;;;;3.10;99.90;;;;;;5107701;27;19957;-79
2021/01/30 01:47:23;;;;;;;;;;;3.00;99.90;;;;;;5126129;27;19908;-79
2021/01/30 01:49:49;;;;;;;;;;;3.10;99.90;;;;;;5109628;27;19915;-79
2021/01/30 01:52:14;;;;;;;;;;;3.10;99.90;;;;;;5125779;27;19908;-79
2021/01/30 01:54:40;;;;;;;;;;;3.00;99.90;;;;;;5126114;27;19914;-79
2021/01/30 01:57:14;;;;;;;;;;;3.00;99.90;;;;;;5127923;27;19914;-79
2021/01/30 01:59:47;;;;;;;;;;;3.00;99.90;;;;;;5127209;27;19934;-79
2021/01/30 02:02:12;;;;;;;;;;;3.00;99.90;;;;;;5126566;27;19912;-79
2021/01/30 02:04:38;;;;;;;;;;;3.00;99.90;;;;;;5126315;27;19952;-79
2021/01/30 02:07:04;;;;;;;;;;;3.00;99.90;;;;;;5127737;27;19947;-79
2021/01/30 02:09:30;;;;;;;;;;;3.00;99.90;;;;;;5125865;27;19919;-79
2021/01/30 02:11:58;;;;;;;;;;;3.00;99.90;;;;;;5126573;27;19908;-79
2021/01/30 02:14:24;;;;;;;;;;;2.90;99.90;;;;;;5126365;27;19912;-79
2021/01/30 02:16:53;;;;;;;;;;;2.90;99.90;;;;;;5125817;27;20252;-79
2021/01/30 02:19:28;;;;;;;;;;;2.90;99.90;;;;;;5105198;27;20337;-79
2021/01/30 02:21:53;;;;;;;;;;;2.80;99.90;;;;;;5109183;27;19908;-79
2021/01/30 02:24:52;;;;;;;;;;;2.80;99.90;;;;;;5126861;27;20010;-79
2021/01/30 02:27:18;;;;;;;;;;;2.80;99.90;;;;;;5108955;27;19908;-78
2021/01/30 02:29:52;;;;;;;;;;;2.80;99.90;;;;;;5127237;27;19911;-79
2021/01/30 02:32:36;;;;;;;;;;;2.70;99.90;;;;;;5108630;27;19947;-79
2021/01/30 02:35:10;;;;;;;;;;;2.70;99.90;;;;;;5126432;27;19914;-78
2021/01/30 02:37:39;;;;;;;;;;;2.70;99.90;;;;;;5108045;27;19914;-79
2021/01/30 02:40:09;;;;;;;;;;;2.70;99.90;;;;;;5106671;27;19907;-79
2021/01/30 02:42:43;;;;;;;;;;;2.70;99.90;;;;;;5125985;27;19908;-78
2021/01/30 02:45:12;;;;;;;;;;;2.70;99.90;;;;;;5106708;27;19919;-78
2021/01/30 02:47:42;;;;;;;;;;;2.60;99.90;;;;;;5107291;27;19914;-79
2021/01/30 02:50:11;;;;;;;;;;;2.60;99.90;;;;;;5126622;27;19976;-78
2021/01/30 02:52:37;;;;;;;;;;;2.60;99.90;;;;;;5126084;27;20006;-78
2021/01/30 02:55:05;;;;;;;;;;;2.50;99.90;;;;;;5124776;27;19949;-78
2021/01/30 02:57:31;;;;;;;;;;;2.50;99.90;;;;;;5125036;27;19954;-78
2021/01/30 03:00:00;;;;;;;;;;;2.40;99.90;;;;;;5106937;27;19970;-78
2021/01/30 03:02:26;;;;;;;;;;;2.40;99.90;;;;;;5126744;27;19976;-78
2021/01/30 03:04:52;;;;;;;;;;;2.30;99.90;;;;;;5124953;27;20395;-78
2021/01/30 03:07:25;;;;;;;;;;;2.30;99.90;;;;;;5106936;27;19911;-78
2021/01/30 03:09:58;;;;;;;;;;;2.30;99.90;;;;;;5124898;27;19919;-78
2021/01/30 03:12:26;;;;;;;;;;;2.30;99.90;;;;;;5118296;27;19916;-78
2021/01/30 03:14:57;;;;;;;;;;;2.30;99.90;;;;;;5118361;27;19915;-78
2021/01/30 03:17:24;;;;;;;;;;;2.30;99.90;;;;;;5117726;27;20420;-78
2021/01/30 03:19:52;;;;;;;;;;;2.30;99.90;;;;;;5123107;27;19919;-78
2021/01/30 03:22:17;;;;;;;;;;;2.30;99.90;;;;;;5116386;27;20089;-78
2021/01/30 03:24:46;;;;;;;;;;;2.20;99.90;;;;;;5107764;27;19966;-78
2021/01/30 03:27:17;;;;;;;;;;;2.20;99.90;;;;;;5115063;27;19915;-78
2021/01/30 03:29:43;;;;;;;;;;;2.20;99.90;;;;;;5096632;28;19919;-78
2021/01/30 03:32:08;;;;;;;;;;;2.20;99.90;;;;;;5110478;28;19912;-78
2021/01/30 03:34:34;;;;;;;;;;;2.20;99.90;;;;;;5098460;28;19951;-78
2021/01/30 03:36:59;;;;;;;;;;;2.20;99.90;;;;;;5118258;27;19912;-77
2021/01/30 03:39:25;;;;;;;;;;;2.20;99.90;;;;;;5114564;27;20268;-78
2021/01/30 03:41:50;;;;;;;;;;;2.20;99.90;;;;;;5114309;28;19919;-78
2021/01/30 03:44:16;;;;;;;;;;;2.20;99.90;;;;;;5100840;27;20002;-78
2021/01/30 03:46:41;;;;;;;;;;;2.20;99.90;;;;;;5113776;28;19908;-78
2021/01/30 03:49:07;;;;;;;;;;;2.20;99.90;;;;;;5115930;27;19912;-78
2021/01/30 03:51:32;;;;;;;;;;;2.20;99.90;;;;;;5096040;27;19918;-78
2021/01/30 03:53:58;;;;;;;;;;;2.20;99.90;;;;;;5095787;28;19960;-78
2021/01/30 03:56:23;;;;;;;;;;;2.20;99.90;;;;;;5114864;27;19923;-78
2021/01/30 03:58:49;;;;;;;;;;;2.20;99.90;;;;;;5113275;27;20286;-78
2021/01/30 04:01:14;;;;;;;;;;;2.20;99.90;;;;;;5118239;27;19927;-78
2021/01/30 04:03:40;;;;;;;;;;;2.20;99.90;;;;;;5097050;28;20405;-78
2021/01/30 04:06:10;;;;;;;;;;;2.20;99.90;;;;;;5096787;27;19957;-78
2021/01/30 04:08:35;;;;;;;;;;;2.20;99.90;;;;;;5114817;28;20287;-78
2021/01/30 04:11:01;;;;;;;;;;;2.20;99.90;;;;;;5114552;27;19927;-78
2021/01/30 04:13:26;;;;;;;;;;;2.10;99.90;;;;;;5114186;27;19908;-78
2021/01/30 04:15:52;;;;;;;;;;;2.10;99.90;;;;;;5098050;28;19908;-78
2021/01/30 04:18:17;;;;;;;;;;;2.10;99.90;;;;;;5118989;27;19908;-78
2021/01/30 04:20:43;;;;;;;;;;;2.20;99.90;;;;;;5097279;28;19958;-78
2021/01/30 04:23:09;;;;;;;;;;;2.10;99.90;;;;;;5116543;27;20006;-78
2021/01/30 04:25:35;;;;;;;;;;;2.10;99.90;;;;;;5095105;28;19908;-78
2021/01/30 04:28:00;;;;;;;;;;;2.10;99.90;;;;;;5114172;27;19914;-78
2021/01/30 04:30:27;;;;;;;;;;;2.00;99.90;;;;;;5113827;27;19978;-78
2021/01/30 04:32:53;;;;;;;;;;;2.00;99.90;;;;;;5123221;27;19929;-78
2021/01/30 04:35:19;;;;;;;;;;;1.90;99.90;;;;;;5096835;28;19915;-78
2021/01/30 04:37:45;;;;;;;;;;;2.00;99.90;;;;;;5094931;28;19916;-78
2021/01/30 04:40:15;;;;;;;;;;;2.00;99.90;;;;;;5094876;28;19983;-78
2021/01/30 04:42:51;;;;;;;;;;;2.00;99.90;;;;;;5116149;27;20002;-78
2021/01/30 04:45:31;;;;;;;;;;;2.00;99.90;;;;;;5109956;28;20008;-78
2021/01/30 04:47:59;;;;;;;;;;;2.00;99.90;;;;;;5115190;28;19995;-78
2021/01/30 04:50:30;;;;;;;;;;;2.10;99.90;;;;;;5114402;28;19919;-79
2021/01/30 04:53:04;;;;;;;;;;;2.10;99.90;;;;;;5115344;27;19908;-78
2021/01/30 04:55:37;;;;;;;;;;;2.10;99.90;;;;;;5113821;28;19995;-79
2021/01/30 04:58:09;;;;;;;;;;;2.00;99.90;;;;;;5094645;28;20322;-78
2021/01/30 05:00:44;;;;;;;;;;;2.00;99.90;;;;;;5115159;27;19969;-78
2021/01/30 05:03:14;;;;;;;;;;;2.00;99.90;;;;;;5117593;28;19916;-78
2021/01/30 05:05:42;;;;;;;;;;;2.00;99.90;;;;;;5096492;28;19912;-78
2021/01/30 05:08:21;;;;;;;;;;;2.00;99.90;;;;;;5115568;28;19908;-78
2021/01/30 05:10:54;;;;;;;;;;;2.00;99.90;;;;;;5095647;28;19912;-78
2021/01/30 05:13:38;;;;;;;;;;;2.00;99.90;;;;;;5106288;28;19912;-78
2021/01/30 05:16:17;;;;;;;;;;;1.90;99.90;;;;;;5094645;28;19908;-78
2021/01/30 05:18:47;;;;;;;;;;;1.90;99.90;;;;;;5116187;28;19914;-78
2021/01/30 05:21:15;;;;;;;;;;;1.90;99.90;;;;;;5114879;28;19954;-78
2021/01/30 05:23:42;;;;;;;;;;;2.00;99.90;;;;;;5101782;28;20006;-77
2021/01/30 05:26:09;;;;;;;;;;;2.00;99.90;;;;;;5112590;28;19916;-78
2021/01/30 05:28:47;;;;;;;;;;;1.90;99.90;;;;;;5095085;28;19908;-78
2021/01/30 05:31:27;;;;;;;;;;;2.00;99.70;;;;;;5094311;28;19916;-78
2021/01/30 05:34:02;;;;;;;;;;;2.00;99.80;;;;;;5097162;28;19908;-78
2021/01/30 05:36:34;;;;;;;;;;;2.00;99.50;;;;;;5096474;28;20352;-78
2021/01/30 05:39:13;;;;;;;;;;;1.90;98.70;;;;;;5113205;28;19990;-79
2021/01/30 05:41:59;;;;;;;;;;;1.90;98.60;;;;;;5110034;28;20283;-78
2021/01/30 05:44:28;;;;;;;;;;;1.90;98.50;;;;;;5045944;28;19930;-78
2021/01/30 05:46:54;;;;;;;;;;;1.90;98.80;;;;;;5096338;28;20032;-78
2021/01/30 05:49:30;;;;;;;;;;;1.90;99.00;;;;;;5096097;28;19961;-78
2021/01/30 05:52:04;;;;;;;;;;;1.80;98.80;;;;;;5095633;28;20011;-79
2021/01/30 05:54:29;;;;;;;;;;;1.80;98.60;;;;;;5114222;28;20003;-78
2021/01/30 05:56:55;;;;;;;;;;;1.80;98.70;;;;;;5112685;28;19935;-78
2021/01/30 05:59:23;;;;;;;;;;;1.80;99.10;;;;;;5114635;28;19908;-78
2021/01/30 06:01:49;;;;;;;;;;;1.80;98.90;;;;;;5114573;28;19958;-79
2021/01/30 06:04:25;;;;;;;;;;;1.80;99.20;;;;;;5096454;28;19955;-79
2021/01/30 06:06:51;;;;;;;;;;;1.80;99.30;;;;;;5094060;28;19908;-78
2021/01/30 06:09:35;;;;;;;;;;;1.80;99.00;;;;;;5094421;28;19908;-78
2021/01/30 06:12:02;;;;;;;;;;;1.80;99.20;;;;;;5116844;27;20440;-78
2021/01/30 06:14:28;;;;;;;;;;;1.80;99.50;;;;;;5098281;28;19957;-78
2021/01/30 06:16:59;;;;;;;;;;;1.80;99.90;;;;;;5100172;28;19916;-78
2021/01/30 06:19:25;;;;;;;;;;;1.80;99.90;;;;;;5100862;28;20259;-78
2021/01/30 06:22:09;;;;;;;;;;;1.80;99.80;;;;;;5119791;27;19907;-78
2021/01/30 06:24:35;;;;;;;;;;;1.80;99.90;;;;;;5117512;27;19908;-78
2021/01/30 06:27:07;;;;;;;;;;;1.70;99.90;;;;;;5117849;27;19940;-78
2021/01/30 06:29:36;;;;;;;;;;;1.70;99.90;;;;;;5115732;28;19908;-78
2021/01/30 06:32:13;;;;;;;;;;;1.70;99.90;;;;;;5100119;28;19908;-78
2021/01/30 06:34:39;;;;;;;;;;;1.60;99.90;;;;;;5118582;27;19908;-78
2021/01/30 06:37:09;;;;;;;;;;;1.70;99.90;;;;;;5135075;27;19908;-78
2021/01/30 06:39:39;;;;;;;;;;;1.60;99.90;;;;;;5136675;27;20279;-78
2021/01/30 06:42:24;;;;;;;;;;;1.60;99.90;;;;;;5135574;27;19908;-79
2021/01/30 06:44:50;;;;;;;;;;;1.60;99.90;;;;;;5135553;27;19912;-79
2021/01/30 06:47:17;;;;;;;;;;;1.60;99.90;;;;;;5118005;27;19929;-78
2021/01/30 06:49:43;;;;;;;;;;;1.60;99.90;;;;;;5118221;27;20313;-78
2021/01/30 06:52:21;;;;;;;;;;;1.60;99.90;;;;;;5118244;27;19907;-78
2021/01/30 06:54:47;;;;;;;;;;;1.60;99.90;;;;;;5136758;27;19907;-78
2021/01/30 06:57:14;;;;;;;;;;;1.60;99.90;;;;;;5117650;27;20400;-78
2021/01/30 06:59:56;;;;;;;;;;;1.60;99.90;;;;;;5136291;27;19911;-78
2021/01/30 07:02:38;;;;;;;;;;;1.60;99.80;;;;;;5135765;27;21166;-78
2021/01/30 07:05:23;;;;;;;;;;;1.60;99.10;;;;;;5109911;27;19912;-78
2021/01/30 07:08:07;;;;;;;;;;;1.60;99.10;;;;;;5125753;27;19989;-78
2021/01/30 07:10:50;;;;;;;;;;;1.60;99.20;;;;;;5126602;27;19926;-78
2021/01/30 07:13:15;;;;;;;;;;;1.60;98.90;;;;;;5135972;27;20291;-78
2021/01/30 07:15:42;;;;;;;;;;;1.60;98.70;;;;;;5117879;27;20060;-78
2021/01/30 07:18:15;;;;;;;;;;;1.60;98.00;;;;;;5128975;27;19908;-78
2021/01/30 07:20:59;;;;;;;;;;;1.60;97.90;;;;;;5115498;28;19912;-78
2021/01/30 07:23:44;;;;;;;;;;;1.50;97.60;;;;;;5097270;28;19911;-77
2021/01/30 07:26:27;;;;;;;;;;;1.50;97.30;;;;;;5119659;27;19908;-77
2021/01/30 07:29:05;;;;;;;;;;;1.50;97.50;;;;;;5115369;27;19911;-78
2021/01/30 07:31:32;;;;;;;;;;;1.50;97.50;;;;;;5117441;27;20020;-78
2021/01/30 07:34:09;;;;;;;;;;;1.50;97.40;;;;;;5135739;27;19908;-78
2021/01/30 07:36:40;;;;;;;;;;;1.50;97.30;;;;;;5135733;27;19999;-78
2021/01/30 07:39:09;;;;;;;;;;;1.50;97.50;;;;;;5117277;27;20404;-78
2021/01/30 07:42:06;;;;;;;;;;;1.60;98.00;;;;;;5126292;27;19969;-78
2021/01/30 07:44:49;;;;;;;;;;;1.60;98.00;;;;;;5074420;27;19967;-78
2021/01/30 07:47:15;;;;;;;;;;;1.60;97.50;;;;;;5122222;27;19915;-78
2021/01/30 07:49:42;;;;;;;;;;;1.60;97.00;;;;;;5124841;27;19907;-78
2021/01/30 07:52:13;;;;;;;;;;;1.60;96.80;;;;;;5125353;27;19907;-78
2021/01/30 07:54:44;;;;;;;;;;;1.50;96.40;;;;;;5124228;27;19908;-78
2021/01/30 07:57:28;;;;;;;;;;;1.50;96.20;;;;;;5123505;27;19972;-78
2021/01/30 07:59:58;;;;;;;;;;;1.50;96.50;;;;;;5107515;27;19943;-78
2021/01/30 08:02:36;;;;;;;;;;;1.50;96.70;;;;;;5105978;27;19968;-78
2021/01/30 08:05:10;;;;;;;;;;;1.60;96.50;;;;;;5124420;27;19915;-78
2021/01/30 08:07:41;;;;;;;;;;;1.60;96.70;;;;;;5123606;27;19947;-78
2021/01/30 08:10:13;;;;;;;;;;;1.60;96.60;;;;;;5123809;27;19918;-78
2021/01/30 08:12:38;;;;;;;;;;;1.60;96.80;;;;;;5119815;27;20014;-78
2021/01/30 08:15:04;;;;;;;;;;;1.60;97.00;;;;;;5114551;28;20019;-78
2021/01/30 08:17:48;;;;;;;;;;;1.60;97.40;;;;;;5100681;27;19912;-78
2021/01/30 08:20:21;;;;;;;;;;;1.60;97.30;;;;;;5114413;28;19911;-77
2021/01/30 08:23:04;;;;;;;;;;;1.60;97.20;;;;;;5114449;28;19946;-78
2021/01/30 08:25:45;;;;;;;;;;;1.60;97.20;;;;;;5130308;27;19912;-78
2021/01/30 08:28:21;;;;;;;;;;;1.60;97.00;;;;;;5114290;28;19915;-78
2021/01/30 08:30:50;;;;;;;;;;;1.60;97.10;;;;;;5130108;27;19912;-78
2021/01/30 08:33:16;;;;;;;;;;;1.60;97.20;;;;;;5113551;28;19915;-79
2021/01/30 08:35:46;;;;;;;;;;;1.60;97.40;;;;;;5098528;27;19912;-79
2021/01/30 08:38:29;;;;;;;;;;;1.70;97.60;;;;;;5104765;28;19958;-79
2021/01/30 08:40:55;;;;;;;;;;;1.70;97.80;;;;;;5116197;27;19918;-79
2021/01/30 08:43:40;;;;;;;;;;;1.70;97.60;;;;;;5095605;28;19908;-79
2021/01/30 08:46:20;;;;;;;;;;;1.70;97.70;;;;;;5103076;27;19908;-79
2021/01/30 08:48:58;;;;;;;;;;;1.80;97.30;;;;;;5095386;28;19953;-79
2021/01/30 08:51:23;;;;;;;;;;;1.70;96.90;;;;;;5095598;28;19938;-79
2021/01/30 08:53:49;;;;;;;;;;;1.70;96.40;;;;;;5113833;28;19911;-79
2021/01/30 08:56:34;;;;;;;;;;;1.70;96.20;;;;;;5095497;28;19912;-79
2021/01/30 08:59:00;;;;;;;;;;;1.70;96.50;;;;;;5113230;28;20435;-79
2021/01/30 09:01:25;;;;;;;;;;;1.70;96.10;;;;;;5113503;28;19919;-79
2021/01/30 09:03:51;;;;;;;;;;;1.70;95.70;;;;;;5113619;28;20356;-79
2021/01/30 09:06:35;;;;;;;;;;;1.70;95.90;;;;;;5113780;28;19908;-79
2021/01/30 09:09:03;;;;;;;;;;;1.70;95.60;;;;;;5113500;28;20006;-79
2021/01/30 09:11:45;;;;;;;;;;;1.70;95.50;;;;;;5113613;28;19937;-79
2021/01/30 09:14:14;;;;;;;;;;;1.80;95.40;;;;;;5095353;28;19908;-78
2021/01/30 09:16:53;;;;;;;;;;;1.80;95.10;;;;;;5113562;28;19939;-79
2021/01/30 09:19:39;;;;;;;;;;;1.80;95.40;;;;;;5094843;28;19908;-79
2021/01/30 09:22:17;;;;;;;;;;;1.80;95.60;;;;;;5077923;28;19957;-79
2021/01/30 09:24:58;;;;;;;;;;;1.90;95.70;;;;;;5096172;28;19912;-79
2021/01/30 09:27:26;;;;;;;;;;;1.90;95.60;;;;;;5113370;28;19916;-79
2021/01/30 09:29:52;;;;;;;;;;;2.00;95.80;;;;;;5095115;28;19914;-79
2021/01/30 09:32:23;;;;;;;;;;;2.00;95.60;;;;;;5113528;28;20020;-79
2021/01/30 09:34:51;;;;;;;;;;;2.10;95.80;;;;;;5095006;28;19908;-79
2021/01/30 09:37:36;;;;;;;;;;;2.10;95.30;;;;;;5095182;28;20329;-79
2021/01/30 09:40:04;;;;;;;;;;;2.10;95.10;;;;;;5097271;28;19951;-79
2021/01/30 09:42:30;;;;;;;;;;;2.00;94.90;;;;;;5122570;28;19908;-79
2021/01/30 09:45:13;;;;;;;;;;;2.10;94.80;;;;;;5124844;27;19930;-79
2021/01/30 09:47:42;;;;;;;;;;;2.10;94.90;;;;;;5122712;27;19993;-79
2021/01/30 09:50:09;;;;;;;;;;;2.20;94.80;;;;;;5121654;27;19915;-79
2021/01/30 09:52:35;;;;;;;;;;;2.20;95.00;;;;;;5126397;27;19908;-79
2021/01/30 09:55:04;;;;;;;;;;;2.20;95.30;;;;;;5099328;28;19915;-79
2021/01/30 09:57:30;;;;;;;;;;;2.30;95.30;;;;;;5130097;27;19916;-79
2021/01/30 09:59:59;;;;;;;;;;;2.30;95.00;;;;;;5134448;27;19914;-79
2021/01/30 10:02:27;;;;;;;;;;;2.40;94.90;;;;;;5101857;28;19919;-80
2021/01/30 10:05:04;;;;;;;;;;;2.50;95.00;;;;;;5098235;28;19972;-80
2021/01/30 10:07:29;;;;;;;;;;;2.50;94.50;;;;;;5098280;28;19915;-81
2021/01/30 10:09:55;;;;;;;;;;;2.60;94.30;;;;;;5116483;28;19912;-80
2021/01/30 10:12:22;;;;;;;;;;;2.70;93.90;;;;;;5116560;28;19915;-80
2021/01/30 10:14:52;;;;;;;;;;;2.70;93.90;;;;;;5097919;28;19961;-80
2021/01/30 10:17:26;;;;;;;;;;;2.70;93.80;;;;;;5108270;27;19912;-80
2021/01/30 10:20:06;;;;;;;;;;;2.70;93.40;;;;;;5116108;27;19963;-79
2021/01/30 10:22:36;;;;;;;;;;;2.70;93.30;;;;;;5118333;27;19927;-80
2021/01/30 10:25:06;;;;;;;;;;;2.60;93.40;;;;;;5099739;28;20006;-80
2021/01/30 10:27:32;;;;;;;;;;;2.60;92.80;;;;;;5117386;27;19912;-80
2021/01/30 10:29:58;;;;;;;;;;;2.50;93.10;;;;;;5116817;27;19915;-79
2021/01/30 10:32:39;;;;;;;;;;;2.50;93.20;;;;;;5117057;27;19965;-79
2021/01/30 10:35:07;;;;;;;;;;;2.50;93.70;;;;;;5121979;27;19962;-79
2021/01/30 10:37:43;;;;;;;;;;;2.60;94.00;;;;;;5130330;27;20011;-80
2021/01/30 10:40:13;;;;;;;;;;;2.70;94.20;;;;;;5104153;28;19955;-80
2021/01/30 10:42:39;;;;;;;;;;;2.70;94.10;;;;;;5096947;28;19964;-80
2021/01/30 10:45:12;;;;;;;;;;;2.80;94.10;;;;;;5133906;27;19941;-81
2021/01/30 10:47:38;;;;;;;;;;;2.80;94.40;;;;;;5132168;27;19960;-81
2021/01/30 10:50:09;;;;;;;;;;;2.90;94.70;;;;;;5118305;27;19912;-81
2021/01/30 10:52:34;;;;;;;;;;;3.00;94.80;;;;;;5100167;27;20338;-80
2021/01/30 10:55:21;;;;;;;;;;;3.00;94.60;;;;;;5120085;27;19918;-80
2021/01/30 10:57:46;;;;;;;;;;;3.00;94.50;;;;;;5099372;27;19952;-80
2021/01/30 11:00:32;;;;;;;;;;;3.00;94.40;;;;;;5104714;28;19920;-80
2021/01/30 11:03:17;;;;;;;;;;;3.10;94.00;;;;;;5121300;27;19908;-81
2021/01/30 11:05:43;;;;;;;;;;;3.10;94.00;;;;;;5122411;27;19912;-80
2021/01/30 11:08:08;;;;;;;;;;;3.10;93.90;;;;;;5096201;28;19908;-80
2021/01/30 11:10:37;;;;;;;;;;;3.20;93.70;;;;;;5095641;28;19933;-80
2021/01/30 11:13:21;;;;;;;;;;;3.10;93.40;;;;;;5096251;28;20006;-80
2021/01/30 11:15:48;;;;;;;;;;;3.10;92.80;;;;;;5119194;27;19930;-80
2021/01/30 11:18:28;;;;;;;;;;;3.10;92.30;;;;;;5117175;27;19907;-80
2021/01/30 11:20:55;;;;;;;;;;;3.10;92.20;;;;;;5118568;27;19958;-80
2021/01/30 11:23:35;;;;;;;;;;;3.00;92.00;;;;;;5118139;27;19951;-80
2021/01/30 11:26:10;;;;;;;;;;;3.10;92.40;;;;;;5095672;28;20332;-80
2021/01/30 11:28:36;;;;;;;;;;;3.10;92.10;;;;;;5113790;28;19919;-80
2021/01/30 11:31:02;;;;;;;;;;;3.10;92.10;;;;;;5126394;27;19915;-80
2021/01/30 11:33:28;;;;;;;;;;;3.10;92.30;;;;;;5100657;28;20356;-80
2021/01/30 11:35:55;;;;;;;;;;;3.10;92.60;;;;;;5117332;27;19907;-80
2021/01/30 11:38:23;;;;;;;;;;;3.10;91.60;;;;;;5099773;28;19916;-80
2021/01/30 11:40:49;;;;;;;;;;;3.10;91.50;;;;;;5111591;27;20309;-80
2021/01/30 11:43:15;;;;;;;;;;;3.10;91.70;;;;;;5116804;27;19907;-80
2021/01/30 11:45:41;;;;;;;;;;;3.10;91.90;;;;;;5116390;27;20707;-80
2021/01/30 11:48:06;;;;;;;;;;;3.10;91.70;;;;;;5110290;28;19908;-81
2021/01/30 11:50:32;;;;;;;;;;;3.10;92.00;;;;;;5095822;28;19962;-80
2021/01/30 11:53:07;;;;;;;;;;;3.20;91.70;;;;;;5096015;27;19915;-80
2021/01/30 11:55:33;;;;;;;;;;;3.20;91.90;;;;;;5114846;27;19928;-80
2021/01/30 11:57:59;;;;;;;;;;;3.30;92.20;;;;;;5100101;28;19908;-81
2021/01/30 12:00:24;;;;;;;;;;;3.30;91.70;;;;;;5113710;28;19926;-80
2021/01/30 12:02:50;;;;;;;;;;;3.40;91.70;;;;;;5095817;28;19943;-81
2021/01/30 12:05:15;;;;;;;;;;;3.40;92.00;;;;;;5113656;28;19912;-81
2021/01/30 12:07:41;;;;;;;;;;;3.40;91.80;;;;;;5115363;27;20379;-80
2021/01/30 12:10:07;;;;;;;;;;;3.50;91.60;;;;;;5114436;27;19912;-80
2021/01/30 12:12:32;;;;;;;;;;;3.40;91.50;;;;;;5118873;27;19908;-81
2021/01/30 12:14:58;;;;;;;;;;;3.40;91.80;;;;;;5105902;27;19908;-79
2021/01/30 12:17:31;;;;;;;;;;;3.50;92.00;;;;;;5096829;28;19996;-80
2021/01/30 12:19:57;;;;;;;;;;;3.40;91.50;;;;;;5130950;27;19967;-80
2021/01/30 12:22:22;;;;;;;;;;;3.40;91.30;;;;;;5119631;27;20002;-80
2021/01/30 12:24:51;;;;;;;;;;;3.40;91.70;;;;;;5113452;28;19908;-80
2021/01/30 12:27:17;;;;;;;;;;;3.30;91.70;;;;;;5114302;27;19915;-80
2021/01/30 12:29:44;;;;;;;;;;;3.40;92.00;;;;;;5113019;28;19915;-80
2021/01/30 12:32:10;;;;;;;;;;;3.40;92.20;;;;;;5115693;27;19994;-80
2021/01/30 12:34:35;;;;;;;;;;;3.40;92.20;;;;;;5115434;27;19941;-80
2021/01/30 12:37:01;;;;;;;;;;;3.50;92.60;;;;;;5099868;28;19907;-80
2021/01/30 12:39:26;;;;;;;;;;;3.50;92.20;;;;;;5104364;27;19960;-79
2021/01/30 12:41:52;;;;;;;;;;;3.40;91.90;;;;;;5099565;28;20366;-80
2021/01/30 12:44:22;;;;;;;;;;;3.40;92.10;;;;;;5120741;27;20279;-80
2021/01/30 12:46:48;;;;;;;;;;;3.40;92.00;;;;;;5128913;27;19960;-80
2021/01/30 12:49:14;;;;;;;;;;;3.30;91.90;;;;;;5124423;27;19908;-80
2021/01/30 12:51:39;;;;;;;;;;;3.40;92.40;;;;;;5116835;27;19915;-80
2021/01/30 12:54:05;;;;;;;;;;;3.40;92.90;;;;;;5096115;28;19915;-80
2021/01/30 12:56:31;;;;;;;;;;;3.40;92.90;;;;;;5098844;28;20402;-80
2021/01/30 12:58:56;;;;;;;;;;;3.40;93.40;;;;;;5113742;28;19907;-80
2021/01/30 13:01:21;;;;;;;;;;;3.40;93.20;;;;;;5093887;28;19968;-80
2021/01/30 13:03:47;;;;;;;;;;;3.40;93.20;;;;;;5094921;28;19969;-80
2021/01/30 13:06:14;;;;;;;;;;;3.30;93.20;;;;;;5113564;28;19908;-80
2021/01/30 13:08:39;;;;;;;;;;;3.30;93.00;;;;;;5096304;28;19907;-80
2021/01/30 13:11:04;;;;;;;;;;;3.30;93.10;;;;;;5112340;28;19919;-80
2021/01/30 13:13:30;;;;;;;;;;;3.20;92.70;;;;;;5094295;28;19916;-80
2021/01/30 13:15:55;;;;;;;;;;;3.20;93.10;;;;;;5115301;28;19908;-80
2021/01/30 13:18:24;;;;;;;;;;;3.20;93.40;;;;;;5096161;28;19908;-80
2021/01/30 13:20:49;;;;;;;;;;;3.20;93.60;;;;;;5120313;27;20385;-80
2021/01/30 13:23:15;;;;;;;;;;;3.20;93.10;;;;;;5117936;27;19908;-80
2021/01/30 13:25:40;;;;;;;;;;;3.30;93.30;;;;;;5100430;27;19962;-79
2021/01/30 13:28:06;;;;;;;;;;;3.30;93.30;;;;;;5104056;27;19918;-80
2021/01/30 13:30:32;;;;;;;;;;;3.30;92.90;;;;;;5132070;27;19933;-80
2021/01/30 13:32:58;;;;;;;;;;;3.30;92.80;;;;;;5119716;27;20363;-80
2021/01/30 13:35:25;;;;;;;;;;;3.30;92.70;;;;;;5119956;27;19908;-80
2021/01/30 13:37:51;;;;;;;;;;;3.30;92.60;;;;;;5107162;27;19916;-80
2021/01/30 13:40:23;;;;;;;;;;;3.30;92.40;;;;;;5129062;27;20371;-80
2021/01/30 13:42:48;;;;;;;;;;;3.30;91.90;;;;;;5126321;27;19930;-80
2021/01/30 13:45:14;;;;;;;;;;;3.30;92.20;;;;;;5117755;27;20363;-80
2021/01/30 13:47:41;;;;;;;;;;;3.30;92.40;;;;;;5100139;27;19915;-80
2021/01/30 13:50:07;;;;;;;;;;;3.40;92.20;;;;;;5097619;28;19912;-81
2021/01/30 13:52:33;;;;;;;;;;;3.40;92.30;;;;;;5097889;27;20236;-81
2021/01/30 13:54:58;;;;;;;;;;;3.40;92.50;;;;;;5116584;27;19915;-80
2021/01/30 13:57:23;;;;;;;;;;;3.50;92.00;;;;;;5097943;28;19915;-80
2021/01/30 13:59:49;;;;;;;;;;;3.50;92.10;;;;;;5120615;27;19908;-81
2021/01/30 14:02:15;;;;;;;;;;;3.50;91.60;;;;;;5118044;27;19907;-80
2021/01/30 14:04:40;;;;;;;;;;;3.50;91.70;;;;;;5119791;27;19912;-80
2021/01/30 14:07:06;;;;;;;;;;;3.50;91.80;;;;;;5108412;28;19943;-80
2021/01/30 14:09:31;;;;;;;;;;;3.50;92.10;;;;;;5116513;27;20378;-81
2021/01/30 14:11:56;;;;;;;;;;;3.60;92.50;;;;;;5097731;28;19915;-80
2021/01/30 14:14:22;;;;;;;;;;;3.60;92.30;;;;;;5116346;28;19908;-80
2021/01/30 14:16:49;;;;;;;;;;;3.60;92.60;;;;;;5097787;28;19911;-81
2021/01/30 14:19:15;;;;;;;;;;;3.70;92.70;;;;;;5116265;28;19976;-81
2021/01/30 14:21:40;;;;;;;;;;;3.70;92.50;;;;;;5115872;28;20283;-81
2021/01/30 14:24:06;;;;;;;;;;;3.70;92.80;;;;;;5097724;28;19962;-81
2021/01/30 14:26:31;;;;;;;;;;;3.70;92.80;;;;;;5097996;28;19908;-80
2021/01/30 14:28:57;;;;;;;;;;;3.70;92.50;;;;;;5115872;28;19915;-81
2021/01/30 14:31:23;;;;;;;;;;;3.70;92.40;;;;;;5097008;28;19916;-81
2021/01/30 14:33:49;;;;;;;;;;;3.70;92.60;;;;;;5115714;28;20017;-80
2021/01/30 14:36:15;;;;;;;;;;;3.70;92.10;;;;;;5115828;28;20010;-81
2021/01/30 14:38:41;;;;;;;;;;;3.70;92.00;;;;;;5115940;28;19912;-80
2021/01/30 14:41:07;;;;;;;;;;;3.70;92.10;;;;;;5115599;28;20220;-80
2021/01/30 14:43:32;;;;;;;;;;;3.70;91.40;;;;;;5116046;28;19908;-80